Time;durP1;ratioP1;P1;durP2;ratioP2;P2;SDS_P1;SDS_P2;PMS_P1;PMS_P2;Temp;Humidity;BMP_temperature;BMP_pressure;BME280_temperature;BME280_humidity;BME280_pressure;Samples;Min_cycle;Max_cycle;Signal;HPM_P1;HPM_P2
2022/03/31 00:00:29;;;;;;;;;;;;;;;2.82;70.92;100032.56;5073666;28;20036;-43
2022/03/31 00:02:56;;;;;;;1.55;0.70;;;;;;;2.77;71.26;100027.75;5074253;28;19908;-45
2022/03/31 00:05:22;;;;;;;4.70;1.02;;;;;;;2.72;71.85;100028.19;5072483;28;20033;-43
2022/03/31 00:07:49;;;;;;;4.18;0.95;;;;;;;2.76;71.88;100028.72;5074650;28;20034;-43
2022/03/31 00:10:20;;;;;;;4.65;1.10;;;;;;;2.80;71.94;100024.75;5089068;28;20029;-43
2022/03/31 00:12:46;;;;;;;5.78;1.75;;;;;;;2.64;72.40;100004.28;5073841;28;20060;-43
2022/03/31 00:15:12;;;;;;;2.45;1.15;;;;;;;2.81;72.32;100018.50;5056377;28;20028;-42
2022/03/31 00:17:38;;;;;;;2.85;1.27;;;;;;;2.72;73.23;100016.75;5074171;28;20525;-44
2022/03/31 00:20:04;;;;;;;2.75;1.52;;;;;;;2.73;73.12;100015.78;5074268;28;20035;-43
2022/03/31 00:22:30;;;;;;;5.88;1.58;;;;;;;2.74;73.09;100025.38;5074320;28;20040;-44
2022/03/31 00:24:56;;;;;;;7.43;1.42;;;;;;;2.76;72.73;100025.25;5074318;28;20037;-43
2022/03/31 00:27:21;;;;;;;4.18;2.08;;;;;;;2.67;73.24;100019.84;5074144;28;20025;-43
2022/03/31 00:29:47;;;;;;;2.78;1.77;;;;;;;2.64;73.37;100027.31;5074210;28;20445;-43
2022/03/31 00:32:13;;;;;;;5.00;2.42;;;;;;;2.60;73.58;100018.84;5074242;28;20120;-44
2022/03/31 00:34:39;;;;;;;4.85;3.05;;;;;;;2.56;73.58;100037.81;5074320;28;20040;-43
2022/03/31 00:37:05;;;;;;;6.70;3.65;;;;;;;2.60;73.93;100028.56;5073605;28;20499;-43
2022/03/31 00:39:32;;;;;;;7.53;4.63;;;;;;;2.50;74.33;100016.25;5073813;28;20488;-45
2022/03/31 00:42:00;;;;;;;7.25;5.18;;;;;;;2.65;74.24;100024.47;5073545;28;20036;-45
2022/03/31 00:44:26;;;;;;;6.88;5.43;;;;;;;2.64;73.88;100027.31;5072373;28;20097;-43
2022/03/31 00:46:54;;;;;;;7.03;6.15;;;;;;;2.60;74.27;100041.84;5072758;28;20043;-43
2022/03/31 00:49:21;;;;;;;9.93;6.05;;;;;;;2.58;74.62;100039.34;5073826;28;20068;-45
2022/03/31 00:51:48;;;;;;;6.88;6.13;;;;;;;2.56;74.60;100032.53;5073883;28;20028;-43
2022/03/31 00:54:16;;;;;;;6.15;5.65;;;;;;;2.52;74.41;100042.59;5074378;28;20033;-43
2022/03/31 00:56:42;;;;;;;6.78;5.95;;;;;;;2.52;74.94;100039.94;5076372;28;20052;-47
2022/03/31 00:59:10;;;;;;;6.18;5.57;;;;;;;2.57;74.96;100039.50;5077983;28;20033;-45
2022/03/31 01:01:39;;;;;;;7.80;5.22;;;;;;;2.57;74.58;100039.50;5076393;28;20035;-43
2022/03/31 01:04:06;;;;;;;7.75;4.18;;;;;;;2.55;74.66;100031.69;5076375;28;20033;-45
2022/03/31 01:06:32;;;;;;;3.90;3.60;;;;;;;2.51;75.13;100031.16;5077533;28;20036;-43
2022/03/31 01:08:59;;;;;;;4.57;3.13;;;;;;;2.52;74.99;100035.47;5076786;28;20039;-45
2022/03/31 01:11:25;;;;;;;2.08;1.88;;;;;;;2.50;74.51;100029.50;5078171;28;20028;-44
2022/03/31 01:13:52;;;;;;;4.68;2.40;;;;;;;2.55;75.04;100034.34;5077819;28;20038;-43
2022/03/31 01:16:18;;;;;;;3.97;2.45;;;;;;;2.58;75.15;100039.34;5077327;28;20036;-43
2022/03/31 01:18:44;;;;;;;5.80;3.65;;;;;;;2.59;75.79;100025.09;5077459;28;20032;-46
2022/03/31 01:21:10;;;;;;;4.00;3.58;;;;;;;2.61;75.52;100014.34;5076203;28;20032;-46
2022/03/31 01:23:37;;;;;;;6.45;3.85;;;;;;;2.58;75.59;100012.00;5075757;28;20107;-44
2022/03/31 01:26:08;;;;;;;4.88;3.42;;;;;;;2.58;75.96;100018.16;5077711;28;20056;-44
2022/03/31 01:28:36;;;;;;;4.32;3.85;;;;;;;2.62;75.62;100016.84;5076073;28;20036;-43
2022/03/31 01:31:02;;;;;;;5.75;3.55;;;;;;;2.63;75.88;100018.50;5077010;28;20384;-44
2022/03/31 01:33:28;;;;;;;4.63;3.83;;;;;;;2.64;75.72;100022.00;5077475;28;20032;-44
2022/03/31 01:35:55;;;;;;;5.57;4.22;;;;;;;2.61;76.32;100011.69;5076191;28;20028;-44
2022/03/31 01:38:20;;;;;;;10.75;7.07;;;;;;;2.66;76.07;100017.38;5077431;28;20032;-43
2022/03/31 01:40:46;;;;;;;8.68;7.03;;;;;;;2.62;75.81;100013.34;5075636;28;20369;-44
2022/03/31 01:43:12;;;;;;;8.95;7.68;;;;;;;2.64;76.28;100024.66;5092405;28;20449;-44
2022/03/31 01:45:38;;;;;;;10.30;7.75;;;;;;;2.58;75.94;100026.09;5076830;28;20025;-45
2022/03/31 01:48:05;;;;;;;8.88;6.78;;;;;;;2.58;75.41;100025.25;5076361;28;20047;-47
2022/03/31 01:50:31;;;;;;;6.25;5.75;;;;;;;2.55;75.71;100029.06;5058520;28;20028;-44
2022/03/31 01:52:56;;;;;;;5.63;3.88;;;;;;;2.47;75.31;100019.22;5092287;28;20349;-44
2022/03/31 01:55:23;;;;;;;6.63;3.88;;;;;;;2.50;75.66;100026.03;5076534;28;20024;-44
2022/03/31 01:57:49;;;;;;;3.05;2.28;;;;;;;2.44;75.49;100026.63;5075533;28;20040;-45
2022/03/31 02:00:15;;;;;;;3.75;2.50;;;;;;;2.30;74.92;100014.72;5076785;28;20029;-43
2022/03/31 02:02:43;;;;;;;2.65;2.00;;;;;;;2.27;74.79;100023.00;5091748;28;20025;-44
2022/03/31 02:05:09;;;;;;;3.65;2.45;;;;;;;2.15;76.03;100022.38;5076444;28;20029;-45
2022/03/31 02:07:36;;;;;;;6.60;2.40;;;;;;;2.15;75.55;100019.72;5076663;28;20107;-44
2022/03/31 02:10:04;;;;;;;3.85;2.50;;;;;;;2.20;75.98;100016.63;5076146;28;20028;-43
2022/03/31 02:12:29;;;;;;;4.50;2.60;;;;;;;2.23;75.50;100011.03;5076409;28;20044;-44
2022/03/31 02:14:55;;;;;;;7.10;4.00;;;;;;;2.21;75.09;100007.69;5076036;28;20024;-43
2022/03/31 02:17:21;;;;;;;5.60;3.30;;;;;;;2.23;75.02;100009.22;5075775;28;20036;-44
2022/03/31 02:19:47;;;;;;;3.90;3.60;;;;;;;2.18;75.29;100008.00;5076028;28;20036;-44
2022/03/31 02:22:12;;;;;;;8.02;3.72;;;;;;;2.16;75.02;100002.84;5075078;28;20039;-44
2022/03/31 02:24:38;;;;;;;5.20;3.17;;;;;;;2.13;75.26;100003.16;5076228;28;20338;-43
2022/03/31 02:27:05;;;;;;;5.30;2.80;;;;;;;2.09;75.14;99999.97;5076060;28;20029;-45
2022/03/31 02:29:31;;;;;;;2.88;2.10;;;;;;;2.05;75.16;99998.59;5075711;28;20029;-44
2022/03/31 02:31:57;;;;;;;2.70;2.15;;;;;;;2.07;74.70;100001.13;5057947;28;20029;-45
2022/03/31 02:34:23;;;;;;;3.22;2.10;;;;;;;2.03;75.57;99997.09;5075942;28;20037;-44
2022/03/31 02:36:49;;;;;;;8.35;1.95;;;;;;;2.04;75.13;100001.41;5074556;28;20032;-46
2022/03/31 02:39:14;;;;;;;4.22;2.35;;;;;;;1.90;75.67;100010.69;5075919;28;20367;-43
2022/03/31 02:41:40;;;;;;;3.20;2.08;;;;;;;1.98;75.66;100002.00;5075383;28;20473;-43
2022/03/31 02:44:07;;;;;;;5.70;1.88;;;;;;;2.02;75.68;100006.84;5074499;28;20033;-43
2022/03/31 02:46:33;;;;;;;3.17;1.83;;;;;;;2.06;74.80;99995.00;5075839;28;20103;-44
2022/03/31 02:48:59;;;;;;;4.03;1.92;;;;;;;2.06;75.35;99994.13;5075603;28;20338;-44
2022/03/31 02:51:26;;;;;;;2.58;1.90;;;;;;;1.84;74.90;99959.19;5075485;28;20032;-44
2022/03/31 02:56:38;;;;;;;7.43;2.38;;;;;;;2.03;74.52;99971.44;5073731;28;20041;-44
2022/03/31 02:59:04;;;;;;;5.18;2.20;;;;;;;2.08;74.64;99984.22;5073381;28;20095;-43
2022/03/31 03:01:30;;;;;;;2.58;2.28;;;;;;;2.05;74.78;99981.91;5090516;28;20024;-45
2022/03/31 03:03:58;;;;;;;4.47;2.55;;;;;;;2.00;75.17;99979.69;5074530;28;20135;-43
2022/03/31 03:06:25;;;;;;;3.22;2.63;;;;;;;1.94;75.50;99983.75;5074502;28;20040;-47
2022/03/31 03:08:51;;;;;;;4.75;2.20;;;;;;;1.89;75.52;99993.13;5073859;28;20538;-43
2022/03/31 03:11:17;;;;;;;7.18;2.42;;;;;;;1.86;75.12;99988.16;5075165;28;20115;-44
2022/03/31 03:13:44;;;;;;;4.28;2.25;;;;;;;1.62;75.63;99972.84;5073684;28;20028;-44
2022/03/31 03:16:10;;;;;;;6.82;2.53;;;;;;;1.57;76.05;99978.56;5075325;28;20366;-43
2022/03/31 03:18:36;;;;;;;4.28;1.85;;;;;;;1.57;75.75;99993.59;5073965;28;20032;-43
2022/03/31 03:21:04;;;;;;;3.00;2.17;;;;;;;1.49;76.34;99986.41;5074783;28;20508;-43
2022/03/31 03:23:31;;;;;;;4.75;1.80;;;;;;;1.41;75.92;99994.22;5074752;28;20071;-43
2022/03/31 03:25:57;;;;;;;3.28;2.00;;;;;;;1.30;75.83;99977.56;5074682;28;20039;-42
2022/03/31 03:28:24;;;;;;;4.32;2.25;;;;;;;1.31;76.13;99988.97;5073500;28;20028;-42
2022/03/31 03:30:49;;;;;;;5.65;2.03;;;;;;;1.23;76.26;99987.06;5074489;28;20086;-43
2022/03/31 03:33:15;;;;;;;2.05;1.85;;;;;;;1.14;76.27;99985.28;5090214;28;20032;-43
2022/03/31 03:35:41;;;;;;;2.80;2.17;;;;;;;1.14;76.19;99982.66;5073537;28;20411;-44
2022/03/31 03:38:07;;;;;;;5.20;2.20;;;;;;;1.15;76.92;99984.28;5090307;28;20396;-45
2022/03/31 03:40:33;;;;;;;3.42;2.38;;;;;;;1.11;76.97;99989.03;5073341;28;20422;-45
2022/03/31 03:42:59;;;;;;;3.03;1.90;;;;;;;1.06;76.44;99990.44;5074321;28;20144;-43
2022/03/31 03:45:25;;;;;;;7.63;2.35;;;;;;;1.02;76.47;99995.19;5074148;28;20036;-44
2022/03/31 03:47:51;;;;;;;4.88;2.20;;;;;;;0.99;76.37;100002.59;5074419;28;20033;-43
2022/03/31 03:50:17;;;;;;;2.00;1.77;;;;;;;0.92;76.84;99994.41;5073134;28;20477;-43
2022/03/31 03:52:43;;;;;;;3.15;1.80;;;;;;;0.82;76.86;99993.56;5074063;28;20047;-43
2022/03/31 03:55:10;;;;;;;4.30;1.90;;;;;;;0.83;76.87;100003.19;5073849;28;20036;-43
2022/03/31 03:57:36;;;;;;;8.95;2.00;;;;;;;0.79;76.52;100001.81;5074078;28;20516;-43
2022/03/31 04:00:03;;;;;;;4.82;1.92;;;;;;;0.70;76.24;99998.19;5089565;28;20029;-43
2022/03/31 04:02:29;;;;;;;3.28;1.80;;;;;;;0.66;76.53;99999.47;5073803;28;20032;-43
2022/03/31 04:04:55;;;;;;;2.97;1.80;;;;;;;0.59;76.49;100004.47;5073669;28;20108;-43
2022/03/31 04:07:21;;;;;;;3.90;1.65;;;;;;;0.48;76.87;99997.50;5072282;28;20472;-43
2022/03/31 04:09:46;;;;;;;8.27;1.92;;;;;;;0.49;76.79;100003.66;5072117;28;20071;-43
2022/03/31 04:12:13;;;;;;;5.22;1.55;;;;;;;0.43;77.03;100001.53;5073673;28;20032;-43
2022/03/31 04:14:39;;;;;;;4.55;1.52;;;;;;;0.44;77.18;100001.41;5072212;28;20064;-43
2022/03/31 04:17:05;;;;;;;3.03;2.05;;;;;;;0.48;77.54;100008.06;5073709;28;20146;-43
2022/03/31 04:19:30;;;;;;;4.18;1.80;;;;;;;0.61;76.70;100014.88;5072329;28;20044;-43
2022/03/31 04:21:56;;;;;;;3.40;1.65;;;;;;;0.61;76.17;100013.06;5073145;28;20090;-42
2022/03/31 04:24:22;;;;;;;2.97;1.20;;;;;;;0.55;76.13;100011.84;5073635;28;20024;-44
2022/03/31 04:26:48;;;;;;;9.32;1.80;;;;;;;0.45;76.50;100016.31;5073003;28;20048;-43
2022/03/31 04:29:13;;;;;;;5.13;1.65;;;;;;;0.45;77.16;100021.59;5073389;28;20054;-43
2022/03/31 04:31:43;;;;;;;5.22;1.70;;;;;;;0.43;77.27;100022.69;5072838;28;20048;-43
2022/03/31 04:34:10;;;;;;;3.80;1.58;;;;;;;0.37;76.33;100011.72;5072052;28;20098;-43
2022/03/31 04:36:36;;;;;;;3.25;1.52;;;;;;;0.29;76.97;100016.00;5089408;28;20058;-45
2022/03/31 04:39:03;;;;;;;3.03;1.58;;;;;;;0.26;77.23;100017.13;5073461;28;20082;-46
2022/03/31 04:41:30;;;;;;;6.78;1.35;;;;;;;0.16;77.41;100003.91;5073479;28;20091;-43
2022/03/31 04:43:56;;;;;;;5.00;1.60;;;;;;;0.22;77.83;100017.53;5073806;28;20056;-43
2022/03/31 04:46:22;;;;;;;3.85;1.38;;;;;;;0.14;77.33;100005.84;5073135;28;20436;-43
2022/03/31 04:48:48;;;;;;;2.83;1.20;;;;;;;0.14;77.18;100016.41;5073478;28;20444;-43
2022/03/31 04:51:14;;;;;;;3.90;1.42;;;;;;;0.10;78.16;100011.56;5089060;28;20040;-44
2022/03/31 04:53:39;;;;;;;3.78;1.38;;;;;;;0.10;77.50;100001.00;5072925;28;20456;-44
2022/03/31 04:56:05;;;;;;;5.32;1.50;;;;;;;0.02;77.25;99999.06;5073280;28;20044;-44
2022/03/31 04:58:31;;;;;;;3.15;1.55;;;;;;;0.08;77.32;100002.94;5072998;28;20025;-43
2022/03/31 05:00:56;;;;;;;7.05;1.60;;;;;;;0.05;77.63;100005.84;5071739;28;20032;-43
2022/03/31 05:03:22;;;;;;;6.57;1.50;;;;;;;0.04;77.91;100007.66;5072859;28;20032;-44
2022/03/31 05:05:48;;;;;;;4.78;1.33;;;;;;;-0.03;78.07;100011.81;5072299;28;20029;-43
2022/03/31 05:08:14;;;;;;;4.20;1.60;;;;;;;0.03;78.49;100018.34;5072209;28;20056;-43
2022/03/31 05:10:42;;;;;;;7.03;1.67;;;;;;;0.08;77.55;100010.88;5073151;28;20453;-43
2022/03/31 05:13:08;;;;;;;3.60;1.52;;;;;;;-0.03;77.69;99998.63;5072172;28;20031;-43
2022/03/31 05:15:34;;;;;;;2.95;1.60;;;;;;;0.01;77.54;100013.22;5073244;28;20037;-42
2022/03/31 05:17:59;;;;;;;4.28;1.50;;;;;;;-0.03;77.59;100006.53;5073053;28;20104;-46
2022/03/31 05:20:25;;;;;;;2.78;1.60;;;;;;;-0.02;78.35;100016.97;5072955;28;20492;-47
2022/03/31 05:22:51;;;;;;;1.70;1.60;;;;;;;-0.06;78.49;100001.53;5071854;28;20035;-46
2022/03/31 05:25:17;;;;;;;6.45;2.13;;;;;;;-0.08;78.37;100003.47;5073824;28;20071;-43
2022/03/31 05:27:45;;;;;;;3.88;2.25;;;;;;;-0.09;78.57;100015.84;5071898;28;20495;-43
2022/03/31 05:30:13;;;;;;;5.88;2.45;;;;;;;-0.11;78.16;100023.06;5073108;28;20025;-43
2022/03/31 05:32:39;;;;;;;4.88;2.40;;;;;;;-0.11;78.20;100017.78;5073069;28;20492;-45
2022/03/31 05:35:08;;;;;;;5.82;2.30;;;;;;;-0.15;78.16;100018.16;5072906;28;20033;-43
2022/03/31 05:37:34;;;;;;;5.32;3.45;;;;;;;-0.13;78.40;100010.94;5073329;28;20043;-46
2022/03/31 05:40:04;;;;;;;3.88;2.70;;;;;;;0.04;78.76;100022.66;5073521;28;20441;-45
2022/03/31 05:42:32;;;;;;;2.80;2.30;;;;;;;0.09;78.41;100031.81;5076196;28;20368;-44
2022/03/31 05:44:59;;;;;;;4.57;2.97;;;;;;;0.11;78.14;100027.28;5075675;28;20033;-43
2022/03/31 05:47:25;;;;;;;5.47;3.20;;;;;;;0.03;77.84;100010.44;5076719;28;20074;-44
2022/03/31 05:49:51;;;;;;;3.90;3.13;;;;;;;0.10;78.57;100030.03;5074827;28;20554;-43
2022/03/31 05:52:17;;;;;;;5.43;3.20;;;;;;;0.11;78.76;100029.91;5076240;28;20123;-42
2022/03/31 05:54:43;;;;;;;12.98;3.92;;;;;;;0.19;77.86;100029.22;5076565;28;20107;-44
2022/03/31 05:57:09;;;;;;;3.63;3.30;;;;;;;0.19;78.37;100035.31;5075958;28;20052;-42
2022/03/31 05:59:35;;;;;;;6.05;3.05;;;;;;;0.19;77.62;100030.03;5075289;28;20032;-42
2022/03/31 06:02:01;;;;;;;4.78;3.53;;;;;;;0.30;77.70;100031.72;5076118;28;20100;-42
2022/03/31 06:04:28;;;;;;;5.47;2.90;;;;;;;0.33;77.62;100033.25;5075850;28;20077;-43
2022/03/31 06:06:54;;;;;;;6.38;3.15;;;;;;;0.33;77.29;100041.16;5075852;28;20515;-43
2022/03/31 06:09:20;;;;;;;5.40;2.70;;;;;;;0.19;76.86;100026.56;5075664;28;20075;-43
2022/03/31 06:11:45;;;;;;;7.97;3.60;;;;;;;0.17;77.68;100037.28;5075367;28;20032;-44
2022/03/31 06:14:12;;;;;;;7.18;4.50;;;;;;;0.23;77.24;100041.16;5075297;28;20025;-43
2022/03/31 06:16:39;;;;;;;7.97;5.03;;;;;;;0.28;77.59;100046.03;5075600;28;20032;-44
2022/03/31 06:19:08;;;;;;;4.95;3.08;;;;;;;0.36;77.98;100056.75;5075863;28;20465;-44
2022/03/31 06:21:34;;;;;;;5.88;3.10;;;;;;;0.42;76.98;100056.19;5076336;28;20396;-43
2022/03/31 06:24:00;;;;;;;3.53;2.40;;;;;;;0.51;77.08;100075.66;5074359;28;20028;-43
2022/03/31 06:26:28;;;;;;;11.98;2.60;;;;;;;0.66;77.32;100068.16;5075449;28;20056;-44
2022/03/31 06:28:53;;;;;;;6.97;2.78;;;;;;;0.71;77.12;100068.59;5074794;28;20044;-42
2022/03/31 06:31:22;;;;;;;4.93;2.55;;;;;;;0.78;76.99;100080.28;5075976;28;20025;-43
2022/03/31 06:33:49;;;;;;;2.63;2.22;;;;;;;0.73;76.43;100074.56;5075770;28;20028;-43
2022/03/31 06:36:15;;;;;;;3.35;2.33;;;;;;;0.80;76.43;100074.81;5074050;28;20093;-45
2022/03/31 06:38:41;;;;;;;3.85;1.60;;;;;;;0.77;77.49;100074.13;5076178;28;20470;-46
2022/03/31 06:41:06;;;;;;;2.88;1.90;;;;;;;0.77;76.97;100079.41;5075365;28;20036;-45
2022/03/31 06:43:33;;;;;;;4.32;1.70;;;;;;;0.81;76.96;100084.44;5075532;28;20021;-47
2022/03/31 06:46:00;;;;;;;6.20;2.33;;;;;;;0.89;77.66;100077.47;5075077;28;20033;-44
2022/03/31 06:48:26;;;;;;;2.80;1.83;;;;;;;0.96;77.50;100075.91;5074225;28;20476;-44
2022/03/31 06:50:52;;;;;;;4.43;1.85;;;;;;;0.98;77.18;100072.31;5074750;28;20367;-45
2022/03/31 06:53:19;;;;;;;2.53;1.60;;;;;;;1.00;77.60;100081.75;5073576;28;20037;-44
2022/03/31 06:55:45;;;;;;;2.95;2.10;;;;;;;0.98;77.30;100082.88;5075362;28;20055;-43
2022/03/31 06:58:11;;;;;;;6.18;2.00;;;;;;;0.92;77.83;100084.28;5075315;28;20059;-43
2022/03/31 07:00:36;;;;;;;3.35;1.90;;;;;;;0.98;78.74;100090.81;5075375;28;20079;-43
2022/03/31 07:03:03;;;;;;;3.85;1.83;;;;;;;0.95;78.29;100063.69;5075223;28;20412;-43
2022/03/31 07:05:29;;;;;;;5.65;2.30;;;;;;;1.12;79.06;100090.38;5073614;28;20055;-43
2022/03/31 07:07:55;;;;;;;3.05;2.65;;;;;;;1.12;78.51;100091.22;5074882;28;20043;-43
2022/03/31 07:10:22;;;;;;;4.68;2.80;;;;;;;1.06;78.70;100081.22;5074848;28;20040;-44
2022/03/31 07:12:48;;;;;;;3.45;2.47;;;;;;;1.16;79.24;100097.06;5075249;28;20111;-43
2022/03/31 07:15:14;;;;;;;7.45;2.78;;;;;;;1.20;79.18;100093.13;5090657;28;20094;-44
2022/03/31 07:17:40;;;;;;;3.90;2.55;;;;;;;1.20;79.11;100098.44;5075113;28;20037;-45
2022/03/31 07:20:06;;;;;;;3.42;2.45;;;;;;;1.40;78.93;100103.69;5075087;28;20024;-44
2022/03/31 07:22:33;;;;;;;2.90;2.08;;;;;;;1.43;78.76;100101.59;5074918;28;20111;-44
2022/03/31 07:24:59;;;;;;;4.20;1.95;;;;;;;1.56;78.06;100114.50;5074769;28;20052;-45
2022/03/31 07:27:25;;;;;;;2.88;2.17;;;;;;;1.59;77.99;100108.09;5073247;28;20028;-45
2022/03/31 07:29:51;;;;;;;7.50;2.40;;;;;;;1.60;78.89;100097.38;5072971;28;20035;-45
2022/03/31 07:32:16;;;;;;;4.22;2.40;;;;;;;1.73;78.35;100092.56;5073517;28;20090;-44
2022/03/31 07:34:42;;;;;;;4.60;3.13;;;;;;;1.70;78.76;100110.56;5074920;28;20066;-43
2022/03/31 07:37:08;;;;;;;6.38;4.80;;;;;;;1.54;78.98;100100.56;5073487;28;20503;-44
2022/03/31 07:39:35;;;;;;;5.82;5.30;;;;;;;1.54;79.30;100119.09;5074560;28;20040;-43
2022/03/31 07:42:02;;;;;;;5.38;4.88;;;;;;;1.51;79.42;100120.22;5074748;28;20020;-45
2022/03/31 07:44:28;;;;;;;6.55;5.95;;;;;;;1.53;79.21;100126.19;5074995;28;20033;-48
2022/03/31 07:46:54;;;;;;;7.18;5.70;;;;;;;1.48;79.06;100127.63;5073264;28;20545;-45
2022/03/31 07:49:20;;;;;;;10.23;5.88;;;;;;;1.45;79.68;100135.81;5073554;28;20410;-44
2022/03/31 07:51:46;;;;;;;6.78;5.53;;;;;;;1.41;79.90;100131.81;5074243;28;20483;-46
2022/03/31 07:54:12;;;;;;;7.55;5.43;;;;;;;1.46;79.33;100127.75;5073079;28;20041;-43
2022/03/31 07:56:38;;;;;;;5.93;5.20;;;;;;;1.46;79.29;100134.88;5073483;28;20074;-47
2022/03/31 07:59:04;;;;;;;5.72;5.10;;;;;;;1.64;79.67;100137.63;5072616;28;20122;-42
2022/03/31 08:01:30;;;;;;;5.93;5.32;;;;;;;1.83;79.42;100134.88;5089399;28;20074;-46
2022/03/31 08:03:56;;;;;;;6.25;3.83;;;;;;;1.89;78.37;100128.16;5074112;28;20028;-43
2022/03/31 08:06:23;;;;;;;6.97;3.95;;;;;;;2.01;78.38;100129.66;5055748;28;20428;-42
2022/03/31 08:08:49;;;;;;;3.50;2.90;;;;;;;2.11;78.25;100143.69;5072356;28;20039;-42
2022/03/31 08:11:15;;;;;;;5.80;2.78;;;;;;;2.08;77.43;100135.19;5074273;28;20036;-44
2022/03/31 08:13:40;;;;;;;6.53;2.30;;;;;;;2.16;77.65;100145.06;5073947;28;20028;-43
2022/03/31 08:16:08;;;;;;;4.28;1.60;;;;;;;2.12;76.76;100136.59;5072653;28;20116;-43
2022/03/31 08:18:34;;;;;;;2.05;1.20;;;;;;;2.25;76.59;100150.31;5073909;28;20048;-44
2022/03/31 08:21:01;;;;;;;4.28;1.05;;;;;;;2.40;77.10;100150.66;5072942;28;20025;-43
2022/03/31 08:23:27;;;;;;;4.68;1.35;;;;;;;2.77;76.11;100157.66;5073833;28;20469;-45
2022/03/31 08:25:54;;;;;;;5.25;1.48;;;;;;;3.16;74.83;100167.13;5072687;28;20035;-43
2022/03/31 08:28:20;;;;;;;9.10;1.30;;;;;;;3.26;73.51;100167.88;5073757;28;20079;-42
2022/03/31 08:30:46;;;;;;;7.28;1.88;;;;;;;3.45;73.25;100167.69;5073449;28;20473;-43
2022/03/31 08:33:12;;;;;;;2.08;0.80;;;;;;;3.78;73.34;100173.22;5072205;28;20040;-44
2022/03/31 08:35:38;;;;;;;4.22;1.10;;;;;;;3.69;72.72;100164.38;5073811;28;20032;-43
2022/03/31 08:38:04;;;;;;;8.43;1.20;;;;;;;3.49;71.81;100182.34;5073950;28;20032;-43
2022/03/31 08:40:30;;;;;;;3.33;0.90;;;;;;;3.46;71.24;100184.47;5073939;28;20085;-43
2022/03/31 08:42:56;;;;;;;4.95;1.35;;;;;;;3.55;71.80;100180.03;5073686;28;20111;-48
2022/03/31 08:45:22;;;;;;;2.85;0.80;;;;;;;3.80;71.66;100184.53;5073608;28;20039;-42
2022/03/31 08:47:51;;;;;;;3.35;1.27;;;;;;;3.50;72.34;100193.78;5073972;28;20032;-42
2022/03/31 08:50:20;;;;;;;3.17;1.10;;;;;;;3.34;72.04;100196.31;5074369;28;20051;-43
2022/03/31 08:52:46;;;;;;;6.78;1.38;;;;;;;3.54;71.75;100191.66;5074192;28;20111;-46
2022/03/31 08:55:12;;;;;;;3.22;1.13;;;;;;;3.96;71.70;100191.78;5073824;28;20040;-44
2022/03/31 08:57:43;;;;;;;5.75;1.40;;;;;;;4.19;70.18;100192.03;5073262;28;20033;-41
2022/03/31 09:00:11;;;;;;;3.10;1.08;;;;;;;4.44;69.39;100189.50;5074111;28;20090;-42
2022/03/31 09:02:38;;;;;;;6.68;1.17;;;;;;;4.44;68.49;100185.00;5072403;28;20477;-41
2022/03/31 09:05:05;;;;;;;4.80;1.08;;;;;;;4.34;68.99;100186.94;5074674;28;20044;-41
2022/03/31 09:07:31;;;;;;;5.75;1.17;;;;;;;4.74;69.45;100180.13;5073759;28;20033;-46
2022/03/31 09:09:57;;;;;;;6.55;1.10;;;;;;;5.00;68.51;100190.63;5072485;28;20036;-46
2022/03/31 09:12:26;;;;;;;4.40;1.50;;;;;;;4.88;68.32;100196.44;5073439;28;20125;-41
2022/03/31 09:14:54;;;;;;;6.13;1.30;;;;;;;5.23;67.70;100201.47;5074083;28;20121;-41
2022/03/31 09:17:19;;;;;;;11.60;1.30;;;;;;;5.29;66.31;100194.66;5074868;28;20163;-43
2022/03/31 09:19:45;;;;;;;7.03;1.45;;;;;;;5.79;64.32;100206.97;5079629;28;20108;-42
2022/03/31 09:22:11;;;;;;;8.70;1.58;;;;;;;5.90;63.61;100191.59;5079233;28;20041;-42
2022/03/31 09:24:37;;;;;;;6.28;1.50;;;;;;;7.03;61.38;100199.31;5079230;28;20028;-40
2022/03/31 09:27:04;;;;;;;8.77;1.52;;;;;;;8.94;54.58;100200.69;5078360;28;20042;-41
2022/03/31 09:29:32;;;;;;;17.23;1.92;;;;;;;10.23;49.69;100187.13;5078495;28;20099;-41
2022/03/31 09:32:13;;;;;;;14.07;1.73;;;;;;;9.84;48.80;100199.25;5078780;28;20109;-41
2022/03/31 09:34:42;;;;;;;4.70;2.05;;;;;;;8.18;53.44;100187.59;5079062;28;20113;-41
2022/03/31 09:37:09;;;;;;;7.22;1.98;;;;;;;7.11;56.05;100206.44;5075914;28;20055;-40
2022/03/31 09:39:35;;;;;;;14.73;2.78;;;;;;;6.40;59.32;100198.47;5077393;28;20024;-39
2022/03/31 09:42:00;;;;;;;7.82;2.20;;;;;;;5.91;57.97;100218.09;5092398;28;20040;-41
2022/03/31 09:44:28;;;;;;;8.50;1.38;;;;;;;5.45;55.63;100208.97;5076848;28;20036;-41
2022/03/31 09:46:54;;;;;;;10.48;1.70;;;;;;;5.40;55.32;100204.13;5076709;28;20044;-40
2022/03/31 09:49:24;;;;;;;3.88;1.10;;;;;;;8.19;44.88;100209.81;5077111;28;20032;-41
2022/03/31 09:52:04;;;;;;;8.00;1.30;;;;;;;9.47;41.73;100206.59;5075800;28;20036;-41
2022/03/31 09:54:32;;;;;;;13.23;1.52;;;;;;;9.28;42.73;100232.16;5076944;28;20027;-42
2022/03/31 09:56:59;;;;;;;11.15;1.55;;;;;;;9.22;41.56;100216.03;5075048;28;20044;-42
2022/03/31 09:59:31;;;;;;;9.88;1.67;;;;;;;10.24;38.90;100209.41;5076434;28;20028;-42
2022/03/31 10:01:57;;;;;;;7.53;1.10;;;;;;;10.32;37.22;100203.06;5058120;28;20040;-42
2022/03/31 10:04:24;;;;;;;6.57;1.70;;;;;;;10.56;38.21;100215.16;5076108;28;20369;-42
2022/03/31 10:06:50;;;;;;;5.00;1.23;;;;;;;8.98;38.07;100206.50;5076398;28;20117;-42
2022/03/31 10:09:17;;;;;;;2.83;1.10;;;;;;;9.02;38.73;100213.13;5076235;28;20039;-41
2022/03/31 10:11:44;;;;;;;11.45;1.27;;;;;;;11.17;37.48;100217.03;5076168;28;20055;-41
2022/03/31 10:14:37;;;;;;;9.32;1.48;;;;;;;11.45;36.24;100218.72;5076282;28;20090;-42
2022/03/31 10:17:08;;;;;;;5.25;1.15;;;;;;;10.13;37.91;100228.75;5075466;28;20028;-44
2022/03/31 10:19:36;;;;;;;5.93;1.20;;;;;;;8.97;38.91;100234.28;5076242;28;20035;-41
2022/03/31 10:22:08;;;;;;;9.93;1.60;;;;;;;8.91;37.73;100217.13;5091723;28;20081;-41
2022/03/31 10:24:41;;;;;;;7.25;1.15;;;;;;;9.92;36.20;100213.50;5074770;28;20032;-41
2022/03/31 10:27:08;;;;;;;5.40;1.00;;;;;;;12.35;34.62;100228.00;5059147;28;20111;-42
2022/03/31 10:29:38;;;;;;;7.70;1.17;;;;;;;11.66;33.97;100207.75;5090362;28;20039;-42
2022/03/31 10:32:14;;;;;;;8.77;1.80;;;;;;;11.62;33.27;100207.34;5075732;28;20411;-41
2022/03/31 10:34:44;;;;;;;4.30;1.20;;;;;;;10.62;34.77;100231.31;5075970;28;20028;-42
2022/03/31 10:37:12;;;;;;;5.70;0.93;;;;;;;10.91;32.70;100220.47;5075925;28;20420;-40
2022/03/31 10:39:37;;;;;;;6.20;0.93;;;;;;;9.51;35.01;100217.75;5075544;28;20028;-41
2022/03/31 10:42:07;;;;;;;5.03;1.20;;;;;;;9.09;35.64;100227.44;5075943;28;20032;-42
2022/03/31 10:44:33;;;;;;;4.60;1.00;;;;;;;8.90;35.79;100220.84;5076026;28;20033;-43
2022/03/31 10:47:10;;;;;;;7.25;0.98;;;;;;;8.16;37.15;100219.03;5074740;28;20039;-40
2022/03/31 10:49:36;;;;;;;12.80;1.27;;;;;;;8.41;37.62;100213.41;5075834;28;20024;-40
2022/03/31 10:52:23;;;;;;;4.35;1.05;;;;;;;11.13;32.39;100221.16;5075565;28;20033;-41
2022/03/31 10:54:51;;;;;;;10.38;0.80;;;;;;;12.73;33.46;100224.53;5075606;28;20548;-41
2022/03/31 10:57:18;;;;;;;15.13;1.27;;;;;;;11.75;33.65;100238.78;5075115;28;20091;-40
2022/03/31 10:59:46;;;;;;;5.30;0.88;;;;;;;10.61;34.90;100226.16;5074278;28;20450;-41
2022/03/31 11:02:22;;;;;;;7.55;1.10;;;;;;;10.74;34.64;100242.31;5075122;28;20044;-39
2022/03/31 11:04:52;;;;;;;9.07;1.17;;;;;;;9.40;37.37;100235.19;5057658;28;20106;-39
2022/03/31 11:07:22;;;;;;;6.90;1.17;;;;;;;12.17;33.19;100234.03;5074030;28;20032;-42
2022/03/31 11:09:59;;;;;;;6.45;1.40;;;;;;;10.71;36.98;100215.03;5075581;28;20036;-40
2022/03/31 11:12:28;;;;;;;11.30;1.77;;;;;;;9.19;38.61;100222.59;5074366;28;20040;-40
2022/03/31 11:14:57;;;;;;;8.52;1.40;;;;;;;8.82;40.13;100237.00;5075054;28;20032;-40
2022/03/31 11:17:25;;;;;;;5.70;1.23;;;;;;;9.34;41.02;100227.06;5073937;28;20509;-40
2022/03/31 11:19:53;;;;;;;8.50;1.20;;;;;;;11.42;35.47;100233.38;5074785;28;20074;-40
2022/03/31 11:22:23;;;;;;;3.08;1.08;;;;;;;14.36;33.11;100226.69;5074335;28;20028;-43
2022/03/31 11:24:50;;;;;;;7.10;1.00;;;;;;;16.17;30.83;100223.09;5075287;28;20036;-40
2022/03/31 11:27:28;;;;;;;9.27;1.60;;;;;;;14.23;31.35;100206.88;5075140;28;20090;-40
2022/03/31 11:29:58;;;;;;;5.30;1.20;;;;;;;11.60;34.32;100225.53;5073356;28;20036;-41
2022/03/31 11:32:32;;;;;;;5.47;1.00;;;;;;;10.38;35.47;100231.78;5075173;28;20032;-40
2022/03/31 11:34:58;;;;;;;11.55;1.45;;;;;;;11.46;35.91;100231.13;5090510;28;20081;-39